Gallivare, Sweden

9:13 PM CEST on July 28, 2016 (GMT +0200)
IEUGELLI2 | | Change Station

Elev 1000 ft 67.14 °N, 20.59 °E | Updated 3 minutes ago

Overcast
Overcast
62.4 °F
Feels Like 62.4 °F
N
0.2
Wind Variable Wind from SW
Gusts 4.5 mph

Today
High -- | Low -- °F
--% Chance of Precip.
Yesterday
High -- | Low -- °F
Precip. -- in
Pressure 29.77 in
Visibility 6.2 miles
Clouds Mostly Cloudy 5500 ft
Mostly Cloudy 7200 ft
Overcast 8600 ft
Dew Point 57 °F
Humidity 83%
Rainfall 0.00 in
Snow Depth Not available.
2:49 AM 10:34 PM
Waning Crescent, 29% visible
METAR ESNG 281850Z AUTO 17008KT 9999 -RA BKN055/// BKN072/// OVC086/// 18/12 Q1008 REDZ
Pressure 29.77 in
Visibility 6.2 miles
Clouds Mostly Cloudy 5500 ft
Mostly Cloudy 7200 ft
Overcast 8600 ft
Dew Point 57 °F
Humidity 83%
Rainfall 0.00 in
Snow Depth Not available.
2:49 AM 10:34 PM
Waning Crescent, 29% visible
METAR ESNG 281850Z AUTO 17008KT 9999 -RA BKN055/// BKN072/// OVC086/// 18/12 Q1008 REDZ

10-Day Weather Forecast

×

Almanac

Astronomy

Jul. 28, 2016 Rise Set
Actual Time
Civil Twilight
Nautical Twilight
Astronomical Twilight
Moon
Length of Visible Light
Length of Day
Tomorrow will be .
, % of the Moon is Illuminated

Today's Extremes

Country Highs Country Lows

Community

WunderPhotos

Upload Photos

1,928,188 photos uploaded!

WunderBlog® & News

Nearby

Air Quality

  Air Quality AQ Index Pollutant
Not available.

Snow Depth

Station Depth Elevation

Earthquake Activity

City Distance Mag. Time & Date
Minimum magnitude displayed is 2.5.

Coastal Water Temperatures

Place Temperature

Stations

Nearby Weather Stations

Station Location Temp. Windchill Dew Point Humidity Wind Precip. Elev Updated Type